Time;durP1;ratioP1;P1;durP2;ratioP2;P2;SDS_P1;SDS_P2;PMS_P1;PMS_P2;Temp;Humidity;BMP_temperature;BMP_pressure;BME280_temperature;BME280_humidity;BME280_pressure;Samples;Min_cycle;Max_cycle;Signal;HPM_P1;HPM_P2
2021/11/06 00:02:26;;;;;;;12.68;8.80;;;;;;;6.61;79.97;101113.55;2130338;81;21026;-74
2021/11/06 00:05:28;;;;;;;13.15;8.70;;;;;;;6.61;79.94;101111.75;2127290;81;21150;-76
2021/11/06 00:08:30;;;;;;;13.38;9.33;;;;;;;6.58;79.88;101118.58;2141361;81;21011;-75
2021/11/06 00:11:31;;;;;;;13.43;8.65;;;;;;;6.55;79.85;101117.98;2139114;81;21100;-74
2021/11/06 00:14:34;;;;;;;13.03;8.73;;;;;;;6.50;79.84;101115.68;2134942;81;21536;-74
2021/11/06 00:17:38;;;;;;;16.70;8.28;;;;;;;6.50;79.84;101118.31;2134233;81;21048;-74
2021/11/06 00:20:40;;;;;;;15.85;8.58;;;;;;;6.49;79.85;101115.33;2133255;81;21481;-75
2021/11/06 00:23:41;;;;;;;15.40;9.20;;;;;;;6.46;79.82;101113.76;2135796;81;21050;-74
2021/11/06 00:26:43;;;;;;;21.33;11.73;;;;;;;6.45;79.80;101119.16;2135139;81;21061;-76
2021/11/06 00:29:44;;;;;;;21.68;11.08;;;;;;;6.39;79.80;101121.78;2132574;81;20999;-74
2021/11/06 00:32:46;;;;;;;19.40;10.82;;;;;;;6.36;79.86;101123.79;2134113;81;21073;-75
2021/11/06 00:35:48;;;;;;;17.45;9.85;;;;;;;6.35;79.86;101127.39;2126040;81;20976;-74
2021/11/06 00:38:49;;;;;;;19.15;9.25;;;;;;;6.32;79.87;101123.19;2127130;82;20941;-75
2021/11/06 00:41:51;;;;;;;18.87;9.10;;;;;;;6.30;79.85;101119.81;2130658;81;21324;-74
2021/11/06 00:44:52;;;;;;;16.37;9.03;;;;;;;6.31;79.94;101119.33;2122469;81;21104;-78
2021/11/06 00:47:54;;;;;;;15.48;9.48;;;;;;;6.32;79.91;101115.28;2134261;82;21026;-74
2021/11/06 00:50:55;;;;;;;21.97;12.60;;;;;;;6.33;79.91;101124.02;2137954;81;21096;-75
2021/11/06 00:53:57;;;;;;;15.85;10.82;;;;;;;6.32;79.88;101123.19;2142895;81;21497;-75
2021/11/06 00:56:59;;;;;;;17.42;11.00;;;;;;;6.34;79.82;101125.72;2132331;81;21657;-75
2021/11/06 01:00:00;;;;;;;17.27;10.98;;;;;;;6.31;79.76;101131.19;2131652;81;21056;-74
2021/11/06 01:03:02;;;;;;;15.03;10.53;;;;;;;6.28;79.76;101129.17;2139656;81;21041;-74
2021/11/06 01:06:03;;;;;;;16.10;10.23;;;;;;;6.25;79.73;101125.91;2128532;81;20984;-75
2021/11/06 01:09:05;;;;;;;15.40;9.10;;;;;;;6.25;79.74;101127.22;2142130;81;21121;-74
2021/11/06 01:12:07;;;;;;;13.98;8.75;;;;;;;6.25;79.78;101128.09;2130331;81;21733;-76
2021/11/06 01:15:12;;;;;;;16.45;10.03;;;;;;;6.30;79.78;101135.63;2132862;81;21063;-74
2021/11/06 01:18:14;;;;;;;14.60;9.23;;;;;;;6.34;79.81;101129.19;2125121;81;21123;-74
2021/11/06 01:21:15;;;;;;;13.78;8.58;;;;;;;6.35;79.72;101129.55;2139830;81;21543;-78
2021/11/06 01:24:17;;;;;;;14.83;8.55;;;;;;;6.37;79.73;101132.91;2141558;81;21022;-74
2021/11/06 01:27:18;;;;;;;13.65;9.08;;;;;;;6.38;79.66;101134.58;2133197;81;21063;-74
2021/11/06 01:30:20;;;;;;;15.08;9.50;;;;;;;6.35;79.65;101132.66;2138207;81;21031;-75
2021/11/06 01:33:21;;;;;;;14.33;8.70;;;;;;;6.36;79.69;101125.94;2138327;81;21034;-75
2021/11/06 01:36:23;;;;;;;10.58;7.75;;;;;;;6.39;79.67;101131.47;2141385;81;21081;-74
2021/11/06 01:39:25;;;;;;;10.15;7.35;;;;;;;6.43;79.64;101136.89;2128042;82;21021;-76
2021/11/06 01:42:27;;;;;;;11.28;7.92;;;;;;;6.46;79.59;101136.66;2125892;81;21070;-77
2021/11/06 01:45:28;;;;;;;12.20;8.48;;;;;;;6.49;79.55;101131.15;2134761;81;21620;-75
2021/11/06 01:48:30;;;;;;;13.60;8.13;;;;;;;6.50;79.51;101129.73;2133299;81;21509;-75
2021/11/06 01:51:31;;;;;;;20.23;8.98;;;;;;;6.50;79.42;101126.22;2115186;82;21079;-78
2021/11/06 01:54:33;;;;;;;22.67;8.80;;;;;;;6.46;79.36;101133.53;2112402;81;21001;-75
2021/11/06 01:57:35;;;;;;;10.78;7.72;;;;;;;6.41;79.32;101134.35;2136921;82;21115;-75
2021/11/06 02:00:37;;;;;;;13.80;8.25;;;;;;;6.40;79.38;101140.59;2101170;83;20997;-74
2021/11/06 02:03:38;;;;;;;12.82;8.08;;;;;;;6.42;79.37;101140.01;2122794;82;21082;-74
2021/11/06 02:06:40;;;;;;;12.82;8.03;;;;;;;6.45;79.42;101141.09;2112748;81;21507;-76
2021/11/06 02:09:42;;;;;;;11.75;7.70;;;;;;;6.50;79.40;101144.68;2116971;82;21044;-74
2021/11/06 02:12:44;;;;;;;13.83;8.73;;;;;;;6.55;79.37;101148.30;2121898;82;21003;-74
2021/11/06 02:15:46;;;;;;;10.08;7.35;;;;;;;6.59;79.36;101145.78;2141772;80;21055;-74
2021/11/06 02:18:49;;;;;;;12.15;8.35;;;;;;;6.60;79.29;101150.95;2128590;81;21008;-78
2021/11/06 02:21:52;;;;;;;10.60;6.78;;;;;;;6.60;79.17;101147.48;2145348;81;21078;-75
2021/11/06 02:24:54;;;;;;;8.93;6.47;;;;;;;6.57;79.13;101154.31;2136055;81;21065;-74
2021/11/06 02:27:55;;;;;;;10.70;6.30;;;;;;;6.55;79.09;101148.30;2132223;81;21074;-78
2021/11/06 02:30:57;;;;;;;9.45;6.22;;;;;;;6.53;79.06;101148.41;2129767;81;21076;-76
2021/11/06 02:33:58;;;;;;;11.83;6.25;;;;;;;6.55;79.08;101149.63;2142183;81;21022;-74
2021/11/06 02:37:00;;;;;;;9.80;5.97;;;;;;;6.57;79.04;101148.55;2133036;81;21035;-75
2021/11/06 02:40:05;;;;;;;8.93;6.53;;;;;;;6.61;78.92;101157.06;2142849;81;21107;-78
2021/11/06 02:43:09;;;;;;;7.83;6.00;;;;;;;6.59;78.75;101151.05;2136201;81;21075;-74
2021/11/06 02:46:10;;;;;;;9.80;6.65;;;;;;;6.53;78.63;101149.72;2126522;81;21104;-75
2021/11/06 02:49:12;;;;;;;9.53;6.55;;;;;;;6.47;78.55;101152.83;2132624;81;21025;-74
2021/11/06 02:52:14;;;;;;;10.43;5.80;;;;;;;6.40;78.35;101146.34;2133991;81;21056;-74
2021/11/06 02:55:15;;;;;;;9.25;6.08;;;;;;;6.31;78.33;101152.28;2127374;81;21035;-74
2021/11/06 02:58:17;;;;;;;8.93;5.95;;;;;;;6.25;78.29;101145.67;2135129;82;21049;-74
2021/11/06 03:01:18;;;;;;;11.93;5.87;;;;;;;6.19;78.29;101151.40;2130364;81;21059;-77
2021/11/06 03:04:20;;;;;;;8.13;6.12;;;;;;;6.12;78.24;101145.75;2148914;81;21558;-74
2021/11/06 03:07:21;;;;;;;12.15;6.78;;;;;;;6.05;78.24;101150.64;2141195;80;21041;-76
2021/11/06 03:10:23;;;;;;;9.25;6.30;;;;;;;6.02;78.23;101153.95;2135550;81;21030;-74
2021/11/06 03:13:25;;;;;;;11.18;6.42;;;;;;;5.95;78.21;101150.94;2122668;82;21034;-74
2021/11/06 03:16:27;;;;;;;10.30;6.72;;;;;;;5.90;78.23;101148.24;2124514;82;21083;-74
2021/11/06 03:19:29;;;;;;;7.40;5.78;;;;;;;5.83;78.18;101153.95;2134690;81;21021;-75
2021/11/06 03:22:31;;;;;;;8.85;5.80;;;;;;;5.79;78.21;101157.75;2136183;82;21053;-74
2021/11/06 03:25:33;;;;;;;8.25;5.17;;;;;;;5.72;78.09;101156.52;2139896;81;21415;-76
2021/11/06 03:28:35;;;;;;;8.45;5.90;;;;;;;5.65;78.00;101165.80;2135037;82;21028;-74
2021/11/06 03:31:36;;;;;;;10.88;6.15;;;;;;;5.60;78.04;101165.28;2135944;81;21108;-74
2021/11/06 03:34:38;;;;;;;9.33;5.97;;;;;;;5.53;77.97;101159.62;2131345;81;21576;-74
2021/11/06 03:37:40;;;;;;;10.38;6.55;;;;;;;5.49;77.96;101175.73;2133672;81;21535;-74
2021/11/06 03:40:41;;;;;;;9.93;6.12;;;;;;;5.40;77.82;101172.79;2131674;81;21529;-74
2021/11/06 03:43:43;;;;;;;9.53;6.50;;;;;;;5.32;77.82;101170.33;2130851;81;21053;-79
2021/11/06 03:46:44;;;;;;;8.65;5.40;;;;;;;5.22;77.79;101169.30;2125053;81;21613;-74
2021/11/06 03:49:46;;;;;;;7.55;5.60;;;;;;;5.13;77.79;101166.84;2133925;82;21054;-74
2021/11/06 03:52:47;;;;;;;7.37;5.42;;;;;;;5.05;77.88;101174.42;2117163;82;21040;-74
2021/11/06 03:55:49;;;;;;;9.58;5.12;;;;;;;4.99;77.90;101175.68;2106120;81;21103;-75
2021/11/06 03:58:50;;;;;;;7.42;5.78;;;;;;;4.94;77.90;101175.15;2192225;79;21080;-78
2021/11/06 04:01:52;;;;;;;9.03;5.45;;;;;;;4.91;78.13;101181.94;2189875;78;21138;-75
2021/11/06 04:04:53;;;;;;;7.37;6.30;;;;;;;4.86;78.12;101176.97;2123736;81;20987;-75
2021/11/06 04:07:55;;;;;;;7.65;5.87;;;;;;;4.83;78.31;101186.39;2124368;81;21458;-74
2021/11/06 04:10:56;;;;;;;7.53;5.67;;;;;;;4.84;78.63;101180.65;2123230;81;21772;-75
2021/11/06 04:13:58;;;;;;;6.70;5.05;;;;;;;4.88;78.78;101179.03;2141010;81;21094;-75
2021/11/06 04:17:00;;;;;;;8.03;5.10;;;;;;;4.91;78.69;101174.05;2137737;81;21017;-75
2021/11/06 04:20:04;;;;;;;7.33;5.75;;;;;;;4.93;78.62;101178.25;2134561;81;21050;-74
2021/11/06 04:23:06;;;;;;;6.17;4.70;;;;;;;4.92;78.43;101173.92;2123661;82;21068;-74
2021/11/06 04:26:08;;;;;;;7.67;5.60;;;;;;;4.87;78.38;101173.42;2126932;81;21045;-74
2021/11/06 04:29:10;;;;;;;6.80;5.37;;;;;;;4.83;78.41;101174.55;2126332;81;22905;-75
2021/11/06 04:32:11;;;;;;;8.40;5.60;;;;;;;4.82;78.52;101165.47;2140684;81;21722;-75
2021/11/06 04:35:13;;;;;;;9.45;5.97;;;;;;;4.87;78.60;101173.42;2133896;81;22168;-74
2021/11/06 04:38:15;;;;;;;7.42;5.78;;;;;;;4.90;78.55;101174.52;2127319;81;21009;-75
2021/11/06 04:41:16;;;;;;;7.97;4.95;;;;;;;4.88;78.38;101177.72;2133504;82;21075;-75
2021/11/06 04:44:18;;;;;;;8.40;5.08;;;;;;;4.86;78.35;101178.29;2139590;81;21713;-76
2021/11/06 04:47:19;;;;;;;7.00;4.95;;;;;;;4.88;78.33;101181.66;2127073;81;21009;-75
2021/11/06 04:50:21;;;;;;;8.75;5.22;;;;;;;4.86;78.28;101183.55;2129610;81;21028;-73
2021/11/06 04:53:22;;;;;;;9.33;5.50;;;;;;;4.87;78.24;101179.13;2125084;82;21021;-72
2021/11/06 04:56:24;;;;;;;6.40;5.28;;;;;;;4.86;78.07;101183.55;2133025;81;21096;-74
2021/11/06 04:59:26;;;;;;;6.75;5.45;;;;;;;4.84;78.12;101176.70;2133362;81;21511;-77
2021/11/06 05:02:27;;;;;;;6.70;5.45;;;;;;;4.79;78.02;101177.03;2133066;81;21088;-74
2021/11/06 05:05:29;;;;;;;7.37;5.25;;;;;;;4.76;78.05;101181.64;2108616;81;21085;-74
2021/11/06 05:08:30;;;;;;;6.05;4.80;;;;;;;4.72;77.93;101187.58;2104224;83;21104;-75
2021/11/06 05:11:32;;;;;;;7.17;5.17;;;;;;;4.63;77.80;101193.46;2127428;81;21032;-73
2021/11/06 05:14:33;;;;;;;7.33;4.92;;;;;;;4.60;77.91;101202.87;2129845;81;21051;-73
2021/11/06 05:17:35;;;;;;;10.03;5.10;;;;;;;4.58;77.93;101200.33;2153246;80;21086;-77
2021/11/06 05:20:38;;;;;;;7.50;4.72;;;;;;;4.58;77.88;101204.75;2105113;83;21058;-74
2021/11/06 05:23:40;;;;;;;15.83;5.87;;;;;;;4.40;77.97;101197.62;2123432;82;21062;-77
2021/11/06 05:26:41;;;;;;;9.68;5.80;;;;;;;4.40;77.97;101197.62;2192571;79;21079;-74
2021/11/06 05:29:43;;;;;;;11.10;6.22;;;;;;;4.45;77.67;101226.59;2194983;78;21074;-75
2021/11/06 05:32:44;;;;;;;11.30;6.92;;;;;;;4.40;77.60;101226.05;2158397;80;21091;-74
2021/11/06 05:35:46;;;;;;;11.57;6.80;;;;;;;4.32;77.61;101224.86;2127474;82;21037;-74
2021/11/06 05:38:47;;;;;;;9.13;5.67;;;;;;;4.24;77.56;101228.81;2120804;82;21042;-75
2021/11/06 05:41:52;;;;;;;9.35;5.60;;;;;;;4.20;77.53;101222.09;2120192;82;21082;-75
2021/11/06 05:44:53;;;;;;;9.43;6.12;;;;;;;4.11;77.50;101220.06;2121217;82;21597;-74
2021/11/06 05:47:55;;;;;;;8.13;6.03;;;;;;;4.12;77.58;101226.15;2114947;82;21054;-76
2021/11/06 05:50:56;;;;;;;9.18;6.30;;;;;;;4.12;77.68;101221.73;2127300;82;21009;-74
2021/11/06 05:53:58;;;;;;;10.72;7.22;;;;;;;4.10;77.50;101230.65;2129911;82;21128;-74
2021/11/06 05:57:00;;;;;;;13.15;9.03;;;;;;;4.03;77.57;101232.83;2118301;82;21346;-73
2021/11/06 06:00:10;;;;;;;21.97;13.70;;;;;;;3.99;77.64;101235.27;2119153;82;21055;-74
2021/11/06 06:03:11;;;;;;;22.20;13.62;;;;;;;3.97;77.71;101244.57;2109322;82;21066;-74
2021/11/06 06:06:13;;;;;;;18.82;11.43;;;;;;;3.95;77.71;101249.06;2188391;79;21100;-75
2021/11/06 06:09:15;;;;;;;11.88;8.08;;;;;;;3.94;77.67;101252.64;2187162;80;21048;-73
2021/11/06 06:12:16;;;;;;;11.12;6.70;;;;;;;3.96;77.75;101259.09;2197185;79;21476;-78
2021/11/06 06:15:20;;;;;;;10.45;6.67;;;;;;;3.98;77.86;101259.38;2182776;79;21078;-77
2021/11/06 06:18:21;;;;;;;11.75;6.62;;;;;;;4.03;77.81;101256.47;2153952;80;21091;-74
2021/11/06 06:21:23;;;;;;;11.05;6.83;;;;;;;4.17;77.91;101258.23;2118941;82;21477;-76
2021/11/06 06:24:24;;;;;;;11.08;7.35;;;;;;;4.32;77.87;101266.43;2119839;82;21381;-75
2021/11/06 06:27:25;;;;;;;10.20;7.28;;;;;;;4.46;77.79;101262.44;2122829;82;21023;-82
2021/11/06 06:30:27;;;;;;;13.83;7.83;;;;;;;4.58;77.67;101261.27;2116027;82;21084;-78
2021/11/06 06:33:30;;;;;;;9.38;7.35;;;;;;;4.56;77.47;101260.07;2203106;78;21038;-75
2021/11/06 06:36:31;;;;;;;11.25;6.95;;;;;;;4.65;77.49;101262.09;2188170;79;21016;-75
2021/11/06 06:39:33;;;;;;;10.13;7.47;;;;;;;4.79;77.43;101266.44;2180308;80;21101;-76
2021/11/06 06:42:34;;;;;;;12.23;8.18;;;;;;;5.00;77.55;101262.01;2187458;78;21004;-74
2021/11/06 06:45:36;;;;;;;11.93;7.12;;;;;;;5.24;77.39;101264.30;2195230;78;21452;-71
2021/11/06 06:48:37;;;;;;;11.73;7.95;;;;;;;5.43;76.99;101270.92;2185097;80;21037;-78
2021/11/06 06:51:39;;;;;;;13.30;8.08;;;;;;;5.62;77.07;101272.18;2158121;81;20970;-74
2021/11/06 06:54:40;;;;;;;15.08;8.05;;;;;;;5.82;76.91;101274.73;2161680;80;21632;-74
2021/11/06 06:57:42;;;;;;;11.38;7.70;;;;;;;5.95;76.57;101269.48;2144954;80;21004;-74
2021/11/06 07:00:43;;;;;;;9.98;7.12;;;;;;;6.07;76.44;101273.04;2121712;82;21095;-70
2021/11/06 07:03:46;;;;;;;10.13;6.90;;;;;;;6.15;76.21;101279.92;2094317;82;21080;-71
2021/11/06 07:06:51;;;;;;;13.32;7.08;;;;;;;6.31;76.11;101278.80;2101045;82;21031;-71
2021/11/06 07:09:51;;;;;;;8.58;6.12;;;;;;;6.40;75.69;101288.71;2136570;81;21105;-74
2021/11/06 07:12:53;;;;;;;7.97;6.55;;;;;;;6.47;75.62;101282.86;2136475;81;21590;-71
2021/11/06 07:15:54;;;;;;;8.98;6.67;;;;;;;6.61;75.50;101281.84;2109730;81;21047;-72
2021/11/06 07:18:56;;;;;;;10.32;7.08;;;;;;;6.65;75.11;101281.17;2123582;82;21020;-72
2021/11/06 07:21:57;;;;;;;10.60;8.00;;;;;;;6.67;74.88;101276.60;2113122;83;21031;-72
2021/11/06 07:25:02;;;;;;;12.18;7.80;;;;;;;6.71;74.71;101288.63;2135816;81;21038;-71
2021/11/06 07:28:04;;;;;;;14.58;6.92;;;;;;;6.74;74.32;101278.68;2142868;81;21092;-72
2021/11/06 07:31:06;;;;;;;10.20;6.42;;;;;;;6.85;74.56;101283.65;2135804;81;21617;-71
2021/11/06 07:34:07;;;;;;;8.20;6.28;;;;;;;6.99;74.19;101289.22;2123484;82;21024;-72
2021/11/06 07:37:09;;;;;;;11.35;7.08;;;;;;;7.08;74.00;101289.84;2126933;82;21104;-72
2021/11/06 07:40:12;;;;;;;9.83;6.90;;;;;;;7.23;73.87;101290.47;2131777;81;21078;-71
2021/11/06 07:43:14;;;;;;;10.50;6.97;;;;;;;7.47;74.06;101296.53;2131620;81;21050;-72
2021/11/06 07:46:15;;;;;;;10.63;7.05;;;;;;;7.81;73.62;101291.27;2123036;81;21085;-73
2021/11/06 07:49:17;;;;;;;9.98;6.83;;;;;;;8.19;73.28;101291.34;2130800;81;21108;-72
2021/11/06 07:52:19;;;;;;;9.00;6.30;;;;;;;8.57;73.10;101288.30;2125940;82;21001;-71
2021/11/06 07:55:21;;;;;;;8.23;5.37;;;;;;;8.96;72.57;101293.92;2132544;81;21081;-71
2021/11/06 07:58:23;;;;;;;6.53;5.10;;;;;;;9.35;71.38;101293.70;2138730;81;21047;-71
2021/11/06 08:01:24;;;;;;;8.80;6.00;;;;;;;9.74;71.37;101297.03;2134719;81;21032;-72
2021/11/06 08:04:26;;;;;;;9.75;5.50;;;;;;;10.01;70.90;101289.83;2115006;82;21043;-70
2021/11/06 08:07:28;;;;;;;8.88;6.03;;;;;;;10.49;70.47;101295.77;2128322;81;21579;-69
2021/11/06 08:10:30;;;;;;;9.58;5.70;;;;;;;10.77;69.81;101295.44;2135084;81;20994;-73
2021/11/06 08:13:34;;;;;;;8.23;5.67;;;;;;;11.06;69.49;101301.23;2135499;82;21608;-72
2021/11/06 08:16:34;;;;;;;9.53;5.15;;;;;;;11.46;69.48;101294.40;2121662;81;21726;-72
2021/11/06 08:19:36;;;;;;;9.25;5.83;;;;;;;11.83;68.53;101298.40;2133332;82;20984;-73
2021/11/06 08:22:38;;;;;;;9.78;5.10;;;;;;;12.01;67.62;101305.13;2132803;81;21528;-72
2021/11/06 08:25:40;;;;;;;11.50;5.30;;;;;;;12.13;67.02;101299.12;2124880;81;21024;-72
2021/11/06 08:28:42;;;;;;;8.98;4.95;;;;;;;12.10;64.50;101304.73;2137048;81;21060;-73
2021/11/06 08:31:44;;;;;;;6.60;4.80;;;;;;;12.14;65.75;101303.47;2148636;81;21485;-72
2021/11/06 08:34:45;;;;;;;8.23;5.17;;;;;;;12.22;65.38;101307.56;2125914;81;21052;-74
2021/11/06 08:37:48;;;;;;;12.20;5.40;;;;;;;12.25;64.79;101305.94;2125341;81;21051;-72
2021/11/06 08:40:50;;;;;;;9.58;4.90;;;;;;;12.13;64.11;101307.59;2131681;81;21132;-72
2021/11/06 08:43:53;;;;;;;8.68;4.40;;;;;;;12.04;64.00;101314.14;2132067;81;21502;-73
2021/11/06 08:46:55;;;;;;;6.08;4.83;;;;;;;11.97;63.21;101306.92;2101989;83;21077;-72
2021/11/06 08:49:58;;;;;;;9.10;4.60;;;;;;;11.97;62.97;101304.27;2135045;81;21595;-73
2021/11/06 08:53:00;;;;;;;6.60;4.08;;;;;;;12.01;64.05;101305.13;2108803;83;21072;-75
2021/11/06 08:56:01;;;;;;;7.65;4.70;;;;;;;12.11;62.63;101301.11;2132228;82;21075;-72
2021/11/06 08:59:03;;;;;;;7.97;5.10;;;;;;;12.18;63.63;101307.50;2126144;82;21014;-71
2021/11/06 09:02:05;;;;;;;8.73;5.25;;;;;;;12.39;62.42;101309.92;2139591;81;21087;-72
2021/11/06 09:05:08;;;;;;;11.00;5.12;;;;;;;12.41;62.85;101313.24;2130436;81;21020;-71
2021/11/06 09:08:10;;;;;;;8.80;4.30;;;;;;;12.58;62.17;101318.75;2130008;81;21052;-70
2021/11/06 09:11:14;;;;;;;8.75;4.97;;;;;;;12.63;61.96;101313.81;2139920;81;21033;-71
2021/11/06 09:14:16;;;;;;;6.97;4.53;;;;;;;12.69;62.09;101316.70;2130555;81;20999;-71
2021/11/06 09:17:19;;;;;;;7.62;4.50;;;;;;;12.89;60.26;101308.06;2131136;81;21038;-71
2021/11/06 09:20:21;;;;;;;9.18;4.60;;;;;;;12.94;60.56;101306.28;2145182;81;21659;-70
2021/11/06 09:23:23;;;;;;;7.78;4.60;;;;;;;12.88;60.75;101314.89;2128457;81;21095;-70
2021/11/06 09:26:25;;;;;;;8.60;4.40;;;;;;;12.85;58.76;101309.88;2140415;82;20990;-72
2021/11/06 09:29:26;;;;;;;6.42;4.00;;;;;;;12.72;60.20;101323.05;2192806;79;21090;-70
2021/11/06 09:32:29;;;;;;;7.33;4.28;;;;;;;12.85;60.29;101319.19;2190967;78;21107;-71
2021/11/06 09:35:30;;;;;;;7.45;4.25;;;;;;;12.77;59.56;101318.61;2142333;81;21048;-73
2021/11/06 09:38:33;;;;;;;6.20;4.33;;;;;;;12.49;59.80;101318.66;2154074;80;21703;-74
2021/11/06 09:41:35;;;;;;;7.85;4.42;;;;;;;12.23;60.46;101318.54;2107358;82;21624;-77
2021/11/06 09:44:37;;;;;;;8.48;3.98;;;;;;;12.12;60.06;101322.73;2123653;81;21044;-73
2021/11/06 09:47:42;;;;;;;10.48;4.37;;;;;;;11.86;59.95;101321.23;2124417;81;20981;-73
2021/11/06 09:50:42;;;;;;;7.58;4.47;;;;;;;11.61;60.55;101322.69;2138892;81;21570;-74
2021/11/06 09:53:47;;;;;;;11.70;4.42;;;;;;;11.29;60.87;101321.22;2127709;81;21084;-74
2021/11/06 09:56:49;;;;;;;8.43;4.55;;;;;;;11.05;61.03;101328.28;2131176;81;21644;-72
2021/11/06 09:59:51;;;;;;;11.25;4.60;;;;;;;10.85;61.64;101322.63;2139131;81;21702;-79
2021/11/06 10:02:56;;;;;;;9.85;4.70;;;;;;;10.72;61.84;101321.56;2126920;82;21029;-77
2021/11/06 10:06:01;;;;;;;6.75;3.85;;;;;;;10.60;62.45;101292.98;2116262;82;21077;-78
2021/11/06 10:09:08;;;;;;;11.30;4.78;;;;;;;10.82;62.11;101331.70;2125810;81;21086;-72
2021/11/06 10:12:10;;;;;;;4.97;3.52;;;;;;;10.86;62.43;101326.95;2128674;81;21078;-73
2021/11/06 10:15:12;;;;;;;5.58;3.20;;;;;;;10.90;62.40;101320.41;2129579;81;21011;-72
2021/11/06 10:18:21;;;;;;;8.83;3.40;;;;;;;10.95;61.77;101316.81;2120181;81;21072;-72
2021/11/06 10:21:25;;;;;;;7.90;3.77;;;;;;;11.17;62.49;101320.50;2144589;81;22236;-73
2021/11/06 10:24:47;;;;;;;8.58;4.40;;;;;;;11.13;62.06;101315.14;2130789;81;21700;-74
2021/11/06 10:27:52;;;;;;;7.67;4.03;;;;;;;11.10;62.64;101307.95;2110072;81;21098;-78
2021/11/06 10:30:59;;;;;;;10.82;4.90;;;;;;;11.07;62.62;101306.91;2129073;81;21024;-72
2021/11/06 10:34:12;;;;;;;6.33;3.87;;;;;;;10.94;62.42;101301.87;2148218;81;21061;-74
2021/11/06 10:37:14;;;;;;;6.62;3.15;;;;;;;11.09;63.02;101300.45;2132890;82;21011;-72
2021/11/06 10:40:20;;;;;;;7.20;2.77;;;;;;;11.33;62.67;101295.19;2101013;83;21004;-73
2021/11/06 10:43:23;;;;;;;4.70;2.40;;;;;;;11.58;62.17;101284.43;2116517;82;20998;-73
2021/11/06 10:46:28;;;;;;;4.40;2.22;;;;;;;11.87;61.67;101280.34;2133978;82;21014;-71
2021/11/06 10:49:41;;;;;;;3.75;1.70;;;;;;;12.18;61.29;101274.23;2124240;81;21112;-71
2021/11/06 10:52:48;;;;;;;4.40;1.90;;;;;;;12.43;60.59;101275.34;2119991;81;22628;-70
2021/11/06 10:55:49;;;;;;;2.90;1.40;;;;;;;12.68;58.10;101277.76;2121548;81;21033;-74
2021/11/06 10:58:53;;;;;;;2.55;1.67;;;;;;;12.79;58.66;101276.69;2130019;82;21059;-77
2021/11/06 11:01:55;;;;;;;2.77;1.65;;;;;;;12.86;58.04;101269.75;2123229;81;21006;-74
2021/11/06 11:04:57;;;;;;;3.52;1.50;;;;;;;12.82;57.48;101267.06;2121942;82;21029;-75
2021/11/06 11:08:11;;;;;;;3.85;1.55;;;;;;;12.82;57.77;101268.39;2125583;82;21056;-73
2021/11/06 11:11:14;;;;;;;2.58;1.40;;;;;;;13.00;58.36;101269.20;2120008;81;21028;-75
2021/11/06 11:14:24;;;;;;;1.40;1.30;;;;;;;13.15;57.79;101274.83;2129271;81;21042;-77
2021/11/06 11:17:42;;;;;;;2.73;1.77;;;;;;;13.16;57.30;101272.99;2120405;81;21714;-76
2021/11/06 11:20:44;;;;;;;3.20;1.70;;;;;;;13.18;56.86;101275.84;2125464;82;21090;-77
2021/11/06 11:24:02;;;;;;;3.30;1.70;;;;;;;12.97;56.36;101258.84;2138332;81;20994;-77
2021/11/06 11:27:04;;;;;;;3.80;1.90;;;;;;;12.63;56.24;101259.23;2127086;81;21598;-77
2021/11/06 11:30:06;;;;;;;5.55;2.40;;;;;;;12.26;55.64;101257.53;2132011;81;21556;-77
2021/11/06 11:33:09;;;;;;;5.25;2.45;;;;;;;12.05;57.06;101252.46;2117485;82;21049;-76
2021/11/06 11:36:14;;;;;;;2.45;1.60;;;;;;;11.91;56.12;101250.30;2125003;81;21007;-77
2021/11/06 11:39:20;;;;;;;2.65;1.80;;;;;;;11.71;56.42;101249.52;2122278;81;21089;-76
2021/11/06 11:42:38;;;;;;;5.87;2.52;;;;;;;11.54;56.65;101254.63;2138791;81;21085;-75
2021/11/06 11:45:58;;;;;;;4.67;1.80;;;;;;;11.57;56.79;101250.37;2119817;81;21065;-82
2021/11/06 11:49:00;;;;;;;3.42;1.70;;;;;;;11.39;55.90;101251.59;2140926;81;21540;-79
2021/11/06 11:52:32;;;;;;;2.52;1.40;;;;;;;11.26;55.15;101243.59;2128327;81;21592;-79
2021/11/06 11:55:48;;;;;;;2.75;1.37;;;;;;;11.29;56.35;101255.26;2131552;81;20959;-78
2021/11/06 11:58:49;;;;;;;1.67;1.20;;;;;;;11.34;55.94;101246.37;2126439;81;21057;-79
2021/11/06 12:02:13;;;;;;;3.75;1.57;;;;;;;11.25;55.36;101245.91;2123147;82;20970;-79
2021/11/06 12:05:23;;;;;;;3.92;2.17;;;;;;;11.06;55.34;101249.44;2128180;81;21494;-78
2021/11/06 12:08:32;;;;;;;10.40;5.45;;;;;;;10.85;55.94;101248.28;2125211;82;21029;-79
2021/11/06 12:11:34;;;;;;;5.03;2.20;;;;;;;10.80;56.63;101244.72;2125596;81;21015;-79
2021/11/06 12:14:41;;;;;;;2.35;1.82;;;;;;;10.66;56.43;101205.33;2126978;81;21510;-79
2021/11/06 12:17:39;;;;;;;3.50;1.30;;;;;;;10.82;56.62;101232.14;2131859;81;21026;-79
2021/11/06 12:20:41;;;;;;;2.08;1.57;;;;;;;10.82;56.62;101232.14;2127525;82;21037;-78
2021/11/06 12:23:53;;;;;;;3.20;1.42;;;;;;;10.81;56.18;101229.62;2121207;82;21348;-77
2021/11/06 12:26:59;;;;;;;2.25;1.37;;;;;;;10.88;56.47;101220.13;2124372;81;21066;-79
2021/11/06 12:30:01;;;;;;;3.72;1.37;;;;;;;10.88;56.47;101220.13;2125809;81;22314;-79
2021/11/06 12:33:06;;;;;;;1.67;1.17;;;;;;;10.97;56.40;101219.27;2127028;81;21041;-79
2021/11/06 12:36:17;;;;;;;3.22;1.47;;;;;;;11.08;56.75;101213.79;2137464;81;21035;-79
2021/11/06 12:39:41;;;;;;;5.53;1.90;;;;;;;11.20;55.34;101215.78;2137218;81;21025;-81
2021/11/06 12:42:43;;;;;;;4.62;2.17;;;;;;;11.21;55.59;101219.64;2144880;81;21820;-76
2021/11/06 12:45:48;;;;;;;3.33;2.10;;;;;;;11.20;55.08;101214.45;2126659;81;21065;-77
2021/11/06 12:48:50;;;;;;;3.58;1.12;;;;;;;11.09;55.25;101212.80;2123292;81;22426;-73
2021/11/06 12:51:54;;;;;;;10.15;3.83;;;;;;;10.87;55.46;101192.73;2125379;81;21086;-75
2021/11/06 12:55:04;;;;;;;40.48;19.25;;;;;;;10.94;55.63;101187.68;2120290;82;21030;-76
2021/11/06 12:58:11;;;;;;;83.95;39.10;;;;;;;11.16;55.86;101208.59;2122580;82;21065;-74
2021/11/06 13:01:27;;;;;;;17.50;8.03;;;;;;;11.15;55.27;101198.97;2127487;81;21064;-75
2021/11/06 13:04:29;;;;;;;15.63;7.60;;;;;;;11.15;55.23;101197.64;2132118;81;21075;-74
2021/11/06 13:07:31;;;;;;;18.10;7.60;;;;;;;11.19;55.38;101202.99;2124816;82;21781;-75
2021/11/06 13:10:32;;;;;;;23.32;9.25;;;;;;;11.19;54.60;101208.30;2127781;81;21089;-73
2021/11/06 13:13:34;;;;;;;31.77;15.58;;;;;;;11.13;54.16;101202.74;2125827;81;21080;-71
2021/11/06 13:16:38;;;;;;;29.32;14.73;;;;;;;10.98;54.74;101179.30;2128377;81;21065;-74
2021/11/06 13:20:05;;;;;;;4.15;2.75;;;;;;;10.98;54.74;101179.30;2126902;82;21019;-68
2021/11/06 13:23:08;;;;;;;2.98;1.50;;;;;;;11.11;53.82;101194.91;2120999;81;21564;-70
2021/11/06 13:26:09;;;;;;;7.03;1.77;;;;;;;11.02;53.71;101193.62;2130395;82;21015;-72
2021/11/06 13:29:11;;;;;;;11.05;5.15;;;;;;;10.94;54.38;101186.36;2115052;81;21046;-74
2021/11/06 13:32:12;;;;;;;13.95;5.30;;;;;;;10.84;54.03;101185.52;2101883;82;21552;-72
2021/11/06 13:35:18;;;;;;;4.60;2.27;;;;;;;10.74;54.32;101190.37;2149437;81;21659;-72
2021/11/06 13:38:33;;;;;;;18.60;7.50;;;;;;;10.68;54.28;101193.59;2137908;82;21105;-74
2021/11/06 13:41:35;;;;;;;13.10;4.78;;;;;;;10.60;54.67;101188.64;2145934;81;21468;-73
2021/11/06 13:44:37;;;;;;;8.25;3.80;;;;;;;10.46;54.94;101188.58;2143082;81;21551;-74
2021/11/06 13:47:45;;;;;;;14.50;7.17;;;;;;;10.41;55.34;101199.59;2139683;81;21040;-72
2021/11/06 13:50:47;;;;;;;18.90;7.20;;;;;;;10.39;55.68;101186.98;2144194;81;20992;-73
2021/11/06 13:54:08;;;;;;;7.78;4.28;;;;;;;10.38;55.93;101183.13;2118263;81;21637;-75
2021/11/06 13:57:26;;;;;;;13.53;5.37;;;;;;;10.38;55.93;101183.13;2129711;82;21077;-71
2021/11/06 14:00:27;;;;;;;5.12;2.47;;;;;;;10.35;55.89;101181.59;2122787;82;21085;-72
2021/11/06 14:03:28;;;;;;;6.42;2.65;;;;;;;10.28;55.80;101177.34;2117296;82;21018;-73
2021/11/06 14:06:47;;;;;;;16.42;6.70;;;;;;;10.25;55.67;101172.78;2114507;82;21114;-73
2021/11/06 14:10:06;;;;;;;58.87;26.48;;;;;;;10.26;56.16;101185.05;2120293;82;20990;-66
2021/11/06 14:13:15;;;;;;;47.88;20.25;;;;;;;10.26;56.15;101176.59;2124084;82;21487;-69
2021/11/06 14:16:19;;;;;;;24.92;10.60;;;;;;;10.30;56.36;101181.16;2118707;82;21034;-72